PWSweather.com
Personal Weather Stations
Station Observations
CARNOUSTIE
Pambride, CarnoustieGB DD7 6DY

PambrideCarnoustieGB DD7 6DY

Lat: 56.50889, Lon: -2.7051

Elevation: 105

Station Type: Oregon Scientific WMR200

Latest ConditionsUpdated 6:20:00 AM GMT Wednesday, Apr 25, 2018
Currently Today's Max Today's Min Today's Average
Temperature 43.0°F6.1°C 43.0°F6.1°C 37.9°F3.3°C 39.6°F4.2°C
Dew Point 41.6°F5.3°C 41.6°F5.3°C 35.5°F1.9°C 37.5°F3.1°C
Winds 4.6 mph SW7.4 kmh SW 5.8 mph WNW9.3 kmh WNW - 3.5 mph 5.6 kmh
Wind Gusts 3.5 mph5.6 kmh 5.8 mph9.3 kmh - -
Humidity 95% 95% 89% 92%
Pressure 29.56 in1001.0 mb 29.56 in1001.0 mb 29.53 in1000.0 mb -
Hour Temp Dew Point Humidity Winds Wind Gusts Pressure Precip Precip Rate Daily Precip Total
06:20 AM 43.0°F6.1°C 41.6°F5.3°C 95% 4.6 mph SW7.4 kmh SW 3.5 mph5.6 kmh 29.56 in1001.0 mb - 0.00 in0.0 mm 0.00 in0.0 mm
06:10 AM 41.8°F5.4°C 40.5°F4.7°C 95% 2.3 mph W3.7 kmh W 2.3 mph3.7 kmh 29.56 in1001.0 mb - 0.00 in0.0 mm 0.00 in0.0 mm
06:00 AM 40.9°F4.9°C 39.6°F4.2°C 95% 2.3 mph W3.7 kmh W 2.3 mph3.7 kmh 29.56 in1001.0 mb - 0.00 in0.0 mm 0.00 in0.0 mm
05:50 AM 40.2°F4.6°C 38.6°F3.7°C 94% 1.2 mph WSW1.9 kmh WSW 2.3 mph3.7 kmh 29.56 in1001.0 mb - 0.00 in0.0 mm 0.00 in0.0 mm
05:40 AM 39.9°F4.4°C 38.3°F3.5°C 94% 1.2 mph WSW1.9 kmh WSW 2.3 mph3.7 kmh 29.56 in1001.0 mb - 0.00 in0.0 mm 0.00 in0.0 mm
05:30 AM 39.8°F4.3°C 38.2°F3.4°C 94% 3.5 mph WSW5.6 kmh WSW 3.5 mph5.6 kmh 29.56 in1001.0 mb - 0.00 in0.0 mm 0.00 in0.0 mm
05:20 AM 39.4°F4.1°C 37.8°F3.2°C 94% 3.5 mph W5.6 kmh W 3.5 mph5.6 kmh 29.53 in1000.0 mb - 0.00 in0.0 mm 0.00 in0.0 mm
05:10 AM 39.4°F4.1°C 37.5°F3.1°C 93% 4.6 mph W7.4 kmh W 4.6 mph7.4 kmh 29.53 in1000.0 mb - 0.00 in0.0 mm 0.00 in0.0 mm
05:00 AM 39.4°F4.1°C 37.5°F3.1°C 93% 3.5 mph W5.6 kmh W 3.5 mph5.6 kmh 29.53 in1000.0 mb - 0.00 in0.0 mm 0.00 in0.0 mm
04:50 AM 39.6°F4.2°C 37.7°F3.2°C 93% 3.5 mph W5.6 kmh W 3.5 mph5.6 kmh 29.56 in1001.0 mb - 0.00 in0.0 mm 0.00 in0.0 mm
04:40 AM 39.4°F4.1°C 37.5°F3.1°C 93% 2.3 mph WSW3.7 kmh WSW 3.5 mph5.6 kmh 29.56 in1001.0 mb - 0.00 in0.0 mm 0.00 in0.0 mm
04:30 AM 39.7°F4.3°C 37.9°F3.3°C 93% 2.3 mph W3.7 kmh W 3.5 mph5.6 kmh 29.56 in1001.0 mb - 0.00 in0.0 mm 0.00 in0.0 mm
04:20 AM 39.9°F4.4°C 38.3°F3.5°C 94% 4.6 mph W7.4 kmh W 4.6 mph7.4 kmh 29.56 in1001.0 mb - 0.00 in0.0 mm 0.00 in0.0 mm
04:10 AM 39.7°F4.3°C 38.2°F3.4°C 94% 4.6 mph WSW7.4 kmh WSW 3.5 mph5.6 kmh 29.56 in1001.0 mb - 0.00 in0.0 mm 0.00 in0.0 mm
04:00 AM 39.2°F4.0°C 37.3°F2.9°C 93% 4.6 mph W7.4 kmh W 4.6 mph7.4 kmh 29.56 in1001.0 mb - 0.00 in0.0 mm 0.00 in0.0 mm
03:50 AM 38.8°F3.8°C 36.9°F2.7°C 93% 3.5 mph W5.6 kmh W 3.5 mph5.6 kmh 29.56 in1001.0 mb - 0.00 in0.0 mm 0.00 in0.0 mm
03:40 AM 38.5°F3.6°C 36.6°F2.6°C 93% 3.5 mph W5.6 kmh W 3.5 mph5.6 kmh 29.56 in1001.0 mb - 0.00 in0.0 mm 0.00 in0.0 mm
03:30 AM 38.5°F3.6°C 36.6°F2.6°C 93% 3.5 mph WSW5.6 kmh WSW 3.5 mph5.6 kmh 29.56 in1001.0 mb - 0.00 in0.0 mm 0.00 in0.0 mm
03:20 AM 38.4°F3.6°C 36.3°F2.4°C 92% 3.5 mph WSW5.6 kmh WSW 3.5 mph5.6 kmh 29.56 in1001.0 mb - 0.00 in0.0 mm 0.00 in0.0 mm
03:10 AM 37.9°F3.3°C 35.5°F1.9°C 91% 3.5 mph WSW5.6 kmh WSW 3.5 mph5.6 kmh 29.56 in1001.0 mb - 0.00 in0.0 mm 0.00 in0.0 mm
03:00 AM 38.3°F3.5°C 36.2°F2.3°C 92% 3.5 mph W5.6 kmh W 3.5 mph5.6 kmh 29.56 in1001.0 mb - 0.00 in0.0 mm 0.00 in0.0 mm
02:50 AM 38.5°F3.6°C 36.1°F2.3°C 91% 2.3 mph W3.7 kmh W 3.5 mph5.6 kmh 29.56 in1001.0 mb - 0.00 in0.0 mm 0.00 in0.0 mm
02:40 AM 38.7°F3.7°C 36.3°F2.4°C 91% 3.5 mph W5.6 kmh W 3.5 mph5.6 kmh 29.56 in1001.0 mb - 0.00 in0.0 mm 0.00 in0.0 mm
02:30 AM 38.8°F3.8°C 36.7°F2.6°C 92% 3.5 mph W5.6 kmh W 3.5 mph5.6 kmh 29.56 in1001.0 mb - 0.00 in0.0 mm 0.00 in0.0 mm
02:20 AM 39.0°F3.9°C 36.9°F2.7°C 92% 3.5 mph WSW5.6 kmh WSW 3.5 mph5.6 kmh 29.56 in1001.0 mb - 0.00 in0.0 mm 0.00 in0.0 mm
02:10 AM 38.9°F3.8°C 36.5°F2.5°C 91% 5.8 mph WNW9.3 kmh WNW 5.8 mph9.3 kmh 29.56 in1001.0 mb - 0.00 in0.0 mm 0.00 in0.0 mm
02:00 AM 38.7°F3.7°C 36.0°F2.2°C 90% 3.5 mph W5.6 kmh W 3.5 mph5.6 kmh 29.56 in1001.0 mb - 0.00 in0.0 mm 0.00 in0.0 mm
01:50 AM 39.2°F4.0°C 36.5°F2.5°C 90% 2.3 mph W3.7 kmh W 2.3 mph3.7 kmh 29.56 in1001.0 mb - 0.00 in0.0 mm 0.00 in0.0 mm
01:40 AM 39.0°F3.9°C 36.3°F2.4°C 90% 3.5 mph W5.6 kmh W 2.3 mph3.7 kmh 29.56 in1001.0 mb - 0.00 in0.0 mm 0.00 in0.0 mm
01:30 AM 39.4°F4.1°C 36.7°F2.6°C 90% 2.3 mph W3.7 kmh W 2.3 mph3.7 kmh 29.56 in1001.0 mb - 0.00 in0.0 mm 0.00 in0.0 mm
01:20 AM 39.7°F4.3°C 37.0°F2.8°C 90% 3.5 mph W5.6 kmh W 3.5 mph5.6 kmh 29.56 in1001.0 mb - 0.00 in0.0 mm 0.00 in0.0 mm
01:10 AM 39.7°F4.3°C 37.0°F2.8°C 90% 3.5 mph W5.6 kmh W 3.5 mph5.6 kmh 29.56 in1001.0 mb - 0.00 in0.0 mm 0.00 in0.0 mm
01:00 AM 39.7°F4.3°C 37.0°F2.8°C 90% 4.6 mph W7.4 kmh W 3.5 mph5.6 kmh 29.56 in1001.0 mb - 0.00 in0.0 mm 0.00 in0.0 mm
12:50 AM 39.7°F4.3°C 37.0°F2.8°C 90% 3.5 mph W5.6 kmh W 4.6 mph7.4 kmh 29.56 in1001.0 mb - 0.00 in0.0 mm 0.00 in0.0 mm
12:40 AM 40.4°F4.7°C 37.7°F3.2°C 90% 3.5 mph WNW5.6 kmh WNW 4.6 mph7.4 kmh 29.56 in1001.0 mb - 0.00 in0.0 mm 0.00 in0.0 mm
12:30 AM 40.5°F4.7°C 37.5°F3.1°C 89% 3.5 mph W5.6 kmh W 5.8 mph9.3 kmh 29.56 in1001.0 mb - 0.00 in0.0 mm 0.00 in0.0 mm
12:20 AM 40.7°F4.8°C 38.0°F3.3°C 90% 3.5 mph W5.6 kmh W 3.5 mph5.6 kmh 29.56 in1001.0 mb - 0.00 in0.0 mm 0.00 in0.0 mm
12:10 AM 41.4°F5.2°C 38.6°F3.7°C 90% 4.6 mph W7.4 kmh W 5.8 mph9.3 kmh 29.56 in1001.0 mb - 0.00 in0.0 mm 0.00 in0.0 mm
12:00 AM 41.9°F5.5°C 39.2°F4.0°C 90% 4.6 mph W7.4 kmh W 4.6 mph7.4 kmh 29.56 in1001.0 mb - 0.00 in0.0 mm 0.00 in0.0 mm